Time;durP1;ratioP1;P1;durP2;ratioP2;P2;SDS_P1;SDS_P2;PMS_P1;PMS_P2;Temp;Humidity;BMP_temperature;BMP_pressure;BME280_temperature;BME280_humidity;BME280_pressure;Samples;Min_cycle;Max_cycle;Signal;HPM_P1;HPM_P2
2022/08/14 00:01:15;;;;;;;7.63;6.50;;;21.50;99.90;;;;;;5055378;28;20135;-81
2022/08/14 00:03:41;;;;;;;9.50;6.80;;;21.50;99.90;;;;;;5073880;28;20550;-81
2022/08/14 00:06:10;;;;;;;8.75;6.45;;;21.40;99.90;;;;;;5073837;28;20037;-82
2022/08/14 00:08:35;;;;;;;8.80;6.72;;;21.40;99.90;;;;;;5073593;28;20131;-81
2022/08/14 00:11:01;;;;;;;9.57;6.78;;;21.40;99.90;;;;;;5073776;28;20131;-81
2022/08/14 00:13:28;;;;;;;8.38;6.93;;;21.40;99.90;;;;;;5055977;28;20044;-81
2022/08/14 00:15:57;;;;;;;7.55;6.75;;;21.30;99.90;;;;;;5073299;28;20054;-82
2022/08/14 00:18:25;;;;;;;8.57;6.15;;;21.20;99.90;;;;;;5055824;28;20048;-82
2022/08/14 00:20:52;;;;;;;9.43;7.10;;;21.20;99.90;;;;;;5073463;28;20060;-81
2022/08/14 00:23:18;;;;;;;8.93;6.50;;;21.20;99.90;;;;;;5073060;28;20032;-83
2022/08/14 00:25:47;;;;;;;9.50;6.90;;;21.20;99.90;;;;;;5073281;28;20075;-83
2022/08/14 00:28:14;;;;;;;13.20;7.20;;;21.10;99.90;;;;;;5055423;28;20048;-82
2022/08/14 00:30:41;;;;;;;9.20;7.20;;;21.10;99.90;;;;;;5055110;28;20041;-82
2022/08/14 00:33:07;;;;;;;9.15;7.18;;;21.10;99.90;;;;;;5073266;28;20068;-82
2022/08/14 00:35:34;;;;;;;8.80;6.68;;;21.10;99.90;;;;;;5054858;28;20083;-83
2022/08/14 00:38:00;;;;;;;14.52;7.38;;;21.00;99.90;;;;;;5073457;28;20057;-82
2022/08/14 00:40:25;;;;;;;8.27;6.68;;;21.00;99.90;;;;;;5073045;28;20048;-81
2022/08/14 00:42:52;;;;;;;8.00;6.47;;;20.90;99.90;;;;;;5054990;28;20515;-81
2022/08/14 00:45:18;;;;;;;8.65;7.00;;;20.90;99.90;;;;;;5055097;28;20036;-82
2022/08/14 00:47:46;;;;;;;7.63;6.90;;;20.90;99.90;;;;;;5055459;28;20052;-81
2022/08/14 00:50:17;;;;;;;11.32;6.82;;;20.90;99.90;;;;;;5073158;28;20128;-81
2022/08/14 00:52:44;;;;;;;10.43;6.97;;;20.90;99.90;;;;;;5038718;28;20507;-81
2022/08/14 00:55:11;;;;;;;9.95;7.10;;;20.70;99.90;;;;;;5037601;28;20049;-82
2022/08/14 00:57:37;;;;;;;10.63;6.25;;;20.80;99.90;;;;;;5054396;28;20094;-82
2022/08/14 01:00:12;;;;;;;11.70;6.78;;;20.70;99.90;;;;;;5072458;28;20127;-81
2022/08/14 01:02:39;;;;;;;8.65;7.20;;;20.70;99.90;;;;;;5072670;28;20075;-82
2022/08/14 01:05:06;;;;;;;9.35;6.70;;;20.70;99.90;;;;;;5072721;28;20044;-81
2022/08/14 01:07:32;;;;;;;7.10;6.40;;;20.70;99.90;;;;;;5072700;28;20484;-85
2022/08/14 01:10:00;;;;;;;11.15;6.90;;;20.70;99.90;;;;;;5072609;28;20410;-82
2022/08/14 01:12:27;;;;;;;7.40;6.60;;;20.70;99.90;;;;;;5054883;28;20053;-81
2022/08/14 01:14:54;;;;;;;8.77;7.28;;;20.70;99.90;;;;;;5072307;28;20460;-81
2022/08/14 01:21:02;;;;;;;7.38;6.45;;;20.70;99.90;;;;;;5038311;28;20106;-81
2022/08/14 01:22:55;;;;;;;9.43;7.18;;;20.60;99.90;;;;;;5054285;28;20053;-81
2022/08/14 01:25:21;;;;;;;7.57;6.63;;;20.70;99.90;;;;;;5072152;28;20053;-81
2022/08/14 01:27:47;;;;;;;7.93;6.78;;;20.60;99.90;;;;;;5072321;28;20052;-82
2022/08/14 01:30:13;;;;;;;8.35;7.47;;;20.60;99.90;;;;;;5072498;28;20052;-81
2022/08/14 01:32:39;;;;;;;8.52;7.00;;;20.60;99.90;;;;;;5072424;28;20051;-81
2022/08/14 01:35:06;;;;;;;8.38;6.43;;;20.60;99.90;;;;;;5072328;28;20090;-82
2022/08/14 01:37:32;;;;;;;9.00;6.68;;;20.60;99.90;;;;;;5072370;28;20056;-81
2022/08/14 01:40:00;;;;;;;10.35;7.30;;;20.60;99.90;;;;;;5072263;28;20178;-81
2022/08/14 01:42:27;;;;;;;9.82;6.78;;;20.60;99.90;;;;;;5072159;28;20048;-81
2022/08/14 01:44:57;;;;;;;10.85;7.20;;;20.60;99.90;;;;;;5054723;28;20413;-81
2022/08/14 01:47:23;;;;;;;8.65;6.88;;;20.60;99.90;;;;;;5072147;28;20109;-80
2022/08/14 01:49:50;;;;;;;9.35;6.93;;;20.50;99.90;;;;;;5054352;28;20044;-84
2022/08/14 01:52:16;;;;;;;10.35;7.20;;;20.40;99.90;;;;;;5072037;28;20402;-82
2022/08/14 01:54:43;;;;;;;7.30;6.20;;;20.40;99.90;;;;;;5071845;28;20040;-82
2022/08/14 01:57:10;;;;;;;7.10;6.43;;;20.40;99.90;;;;;;5072140;28;20132;-81
2022/08/14 01:59:37;;;;;;;7.68;6.38;;;20.40;99.90;;;;;;5072076;28;20456;-83
2022/08/14 02:02:11;;;;;;;7.78;7.00;;;20.40;99.90;;;;;;5071926;28;20068;-81
2022/08/14 02:04:37;;;;;;;10.73;6.72;;;20.40;99.90;;;;;;5071796;28;20133;-80
2022/08/14 02:07:04;;;;;;;8.75;6.43;;;20.40;99.90;;;;;;5073869;28;20056;-81
2022/08/14 02:09:34;;;;;;;8.43;6.28;;;20.30;99.90;;;;;;5057855;28;20044;-81
2022/08/14 02:12:03;;;;;;;8.52;7.20;;;20.30;99.90;;;;;;5058647;28;20044;-81
2022/08/14 02:14:30;;;;;;;7.53;6.75;;;20.30;99.90;;;;;;5075824;28;20049;-86
2022/08/14 02:16:56;;;;;;;11.95;7.63;;;20.30;99.90;;;;;;5076012;28;20051;-82
2022/08/14 02:19:26;;;;;;;11.60;7.00;;;20.30;99.90;;;;;;5075565;28;20139;-80
2022/08/14 02:21:55;;;;;;;9.07;7.10;;;20.30;99.90;;;;;;5075406;28;20083;-81
2022/08/14 02:24:23;;;;;;;9.95;7.28;;;20.30;99.90;;;;;;5075599;28;20063;-80
2022/08/14 02:26:50;;;;;;;9.77;6.95;;;20.30;99.90;;;;;;5075489;28;20131;-82
2022/08/14 02:29:23;;;;;;;13.18;7.55;;;20.30;99.90;;;;;;5075564;28;20043;-80
2022/08/14 02:31:54;;;;;;;11.93;7.88;;;20.10;99.90;;;;;;5057650;28;20056;-81
2022/08/14 02:34:22;;;;;;;8.00;7.22;;;20.20;99.90;;;;;;5075290;28;20970;-80
2022/08/14 02:36:51;;;;;;;7.72;6.93;;;20.10;99.90;;;;;;5057105;28;20094;-81
2022/08/14 02:39:18;;;;;;;8.50;7.40;;;20.10;99.90;;;;;;5057629;28;20533;-80
2022/08/14 02:41:43;;;;;;;11.23;7.13;;;20.10;99.90;;;;;;5075216;28;20098;-80
2022/08/14 02:44:10;;;;;;;8.32;7.50;;;20.10;99.90;;;;;;5040609;28;20064;-81
2022/08/14 02:46:43;;;;;;;8.25;7.45;;;20.10;99.90;;;;;;5057386;28;20049;-80
2022/08/14 02:49:09;;;;;;;11.65;7.07;;;20.00;99.90;;;;;;5075167;28;20037;-81
2022/08/14 02:51:36;;;;;;;10.40;7.82;;;20.10;99.90;;;;;;5074868;28;20040;-81
2022/08/14 02:54:02;;;;;;;8.15;7.35;;;19.90;99.90;;;;;;5075291;28;20131;-80
2022/08/14 02:56:28;;;;;;;8.80;7.10;;;20.00;99.90;;;;;;5057538;28;20045;-81
2022/08/14 02:58:55;;;;;;;8.32;7.00;;;20.00;99.90;;;;;;5057562;28;20047;-80
2022/08/14 03:01:23;;;;;;;9.57;7.10;;;20.00;99.90;;;;;;5074845;28;20056;-81
2022/08/14 03:03:50;;;;;;;9.40;7.60;;;19.90;99.90;;;;;;5074845;28;20454;-81
2022/08/14 03:06:19;;;;;;;8.52;6.97;;;19.90;99.90;;;;;;5074577;28;20083;-81
2022/08/14 03:08:47;;;;;;;11.52;7.57;;;19.90;99.90;;;;;;5074911;28;20042;-81
2022/08/14 03:11:13;;;;;;;11.02;7.68;;;19.90;99.90;;;;;;5074758;28;20092;-80
2022/08/14 03:13:46;;;;;;;9.32;8.07;;;19.80;99.90;;;;;;5074737;28;20090;-80
2022/08/14 03:16:16;;;;;;;9.77;7.97;;;19.80;99.90;;;;;;5074619;28;20091;-80
2022/08/14 03:18:44;;;;;;;10.48;7.72;;;19.80;99.90;;;;;;5055366;28;20117;-81
2022/08/14 03:21:12;;;;;;;9.27;7.90;;;19.70;99.90;;;;;;5056684;28;20485;-82
2022/08/14 03:23:40;;;;;;;8.07;7.28;;;19.70;99.90;;;;;;5074695;28;20049;-81
2022/08/14 03:26:12;;;;;;;8.68;7.57;;;19.60;99.90;;;;;;5074579;28;20052;-81
2022/08/14 03:28:41;;;;;;;11.45;8.05;;;19.60;99.90;;;;;;5056779;28;20097;-81
2022/08/14 03:31:08;;;;;;;9.30;8.35;;;19.50;99.90;;;;;;5074330;28;20124;-81
2022/08/14 03:33:39;;;;;;;7.97;7.10;;;19.50;99.90;;;;;;5074307;28;20044;-82
2022/08/14 03:36:12;;;;;;;9.80;7.93;;;19.50;99.90;;;;;;5074407;28;20044;-80
2022/08/14 03:38:42;;;;;;;9.13;7.93;;;19.50;99.90;;;;;;5056879;28;20048;-81
2022/08/14 03:41:15;;;;;;;;;;;19.40;99.90;;;;;;5057017;28;20048;-81
2022/08/14 03:43:49;;;;;;;8.45;7.55;;;19.40;99.90;;;;;;5039838;28;20015;-81
2022/08/14 03:46:15;;;;;;;9.77;8.68;;;19.40;99.90;;;;;;5073933;28;20084;-80
2022/08/14 03:48:43;;;;;;;10.02;8.95;;;19.40;99.90;;;;;;5056072;28;20044;-81
2022/08/14 03:51:12;;;;;;;10.30;9.30;;;19.40;99.90;;;;;;5056205;28;20504;-81
2022/08/14 03:53:40;;;;;;;10.30;9.13;;;19.40;99.90;;;;;;5056163;28;20041;-81
2022/08/14 03:56:08;;;;;;;10.75;9.30;;;19.30;99.90;;;;;;5055211;28;20056;-82
2022/08/14 03:58:37;;;;;;;11.75;9.68;;;19.30;99.90;;;;;;5055924;28;20052;-81
2022/08/14 04:01:03;;;;;;;11.32;8.82;;;19.20;99.90;;;;;;5055343;28;20048;-80
2022/08/14 04:03:28;;;;;;;12.57;9.27;;;19.30;99.90;;;;;;5073781;28;20098;-80
2022/08/14 04:05:54;;;;;;;10.02;9.02;;;19.30;99.90;;;;;;5039433;28;20394;-81
2022/08/14 04:08:20;;;;;;;10.32;9.32;;;19.30;99.90;;;;;;5073449;28;20076;-81
2022/08/14 04:10:46;;;;;;;11.07;9.98;;;19.20;99.90;;;;;;5073277;28;20080;-81
2022/08/14 04:13:16;;;;;;;11.88;9.40;;;19.20;99.90;;;;;;5073039;28;20123;-81
2022/08/14 04:15:44;;;;;;;13.38;9.48;;;19.10;99.90;;;;;;5055829;28;20048;-82
2022/08/14 04:18:10;;;;;;;11.98;9.07;;;19.10;99.90;;;;;;5055533;28;20378;-80
2022/08/14 04:20:41;;;;;;;10.77;9.05;;;19.10;99.90;;;;;;5039242;28;20044;-81
2022/08/14 04:23:10;;;;;;;;;;;19.10;99.90;;;;;;5055705;28;20055;-81
2022/08/14 04:25:36;;;;;;;9.55;8.55;;;19.00;99.90;;;;;;5022728;28;19920;-81
2022/08/14 04:28:06;;;;;;;10.20;9.00;;;19.00;99.90;;;;;;5073028;28;20048;-81
2022/08/14 04:30:38;;;;;;;10.15;9.15;;;19.00;99.90;;;;;;5055517;28;20041;-81
2022/08/14 04:33:06;;;;;;;11.60;9.90;;;18.90;99.90;;;;;;5073090;28;20045;-81
2022/08/14 04:35:32;;;;;;;10.43;9.32;;;18.90;99.90;;;;;;5073434;28;20581;-80
2022/08/14 04:43:36;;;;;;;11.38;10.18;;;18.90;99.90;;;;;;5072875;28;20044;-81
2022/08/14 04:46:14;;;;;;;10.25;9.18;;;18.90;99.90;;;;;;5038600;28;20105;-84
2022/08/14 04:48:40;;;;;;;10.75;9.65;;;18.90;99.90;;;;;;5072848;28;20052;-80
2022/08/14 04:51:12;;;;;;;10.10;8.73;;;19.00;99.90;;;;;;5072694;28;20045;-81
2022/08/14 04:53:41;;;;;;;11.00;9.68;;;19.00;99.90;;;;;;5072861;28;20091;-81
2022/08/14 04:56:07;;;;;;;11.52;10.00;;;19.00;99.90;;;;;;5072837;28;20040;-80
2022/08/14 04:58:33;;;;;;;10.73;9.20;;;19.00;99.90;;;;;;5072761;28;20052;-82
2022/08/14 05:01:01;;;;;;;10.35;9.35;;;19.10;99.90;;;;;;5054911;28;20059;-80
2022/08/14 05:03:30;;;;;;;10.40;9.30;;;19.20;99.90;;;;;;5072547;28;20523;-80
2022/08/14 05:05:59;;;;;;;11.70;9.80;;;19.20;99.90;;;;;;5054723;28;20052;-80
2022/08/14 05:08:25;;;;;;;13.27;9.38;;;19.20;99.90;;;;;;5072742;28;20056;-81
2022/08/14 05:10:53;;;;;;;11.35;8.77;;;19.20;99.90;;;;;;5054984;28;20052;-81
2022/08/14 05:13:24;;;;;;;10.15;9.05;;;19.30;99.90;;;;;;5038274;28;20041;-81
2022/08/14 05:15:51;;;;;;;;;;;19.30;99.90;;;;;;5072984;28;20052;-81
2022/08/14 05:18:19;;;;;;;11.48;9.23;;;19.40;99.90;;;;;;5072354;28;19982;-81
2022/08/14 05:20:47;;;;;;;11.85;9.63;;;19.40;99.90;;;;;;5072211;28;20523;-80
2022/08/14 05:23:17;;;;;;;12.65;8.80;;;19.50;99.90;;;;;;5054516;28;20502;-81
2022/08/14 05:25:44;;;;;;;10.05;8.93;;;19.60;99.90;;;;;;5038288;28;20510;-80
2022/08/14 05:28:11;;;;;;;11.25;8.80;;;19.60;99.90;;;;;;5054526;28;20049;-81
2022/08/14 05:30:38;;;;;;;9.82;8.43;;;19.70;99.90;;;;;;5037641;28;20064;-80
2022/08/14 05:33:04;;;;;;;11.73;9.13;;;19.80;99.90;;;;;;5072215;28;20044;-80
2022/08/14 05:35:31;;;;;;;11.95;8.82;;;19.80;99.90;;;;;;5072588;28;20070;-80
2022/08/14 05:37:58;;;;;;;10.13;9.13;;;19.90;99.90;;;;;;5072486;28;20094;-80
2022/08/14 05:40:24;;;;;;;10.27;8.63;;;19.90;99.90;;;;;;5054707;28;20110;-80
2022/08/14 05:42:50;;;;;;;11.73;8.90;;;20.00;99.90;;;;;;5057853;28;20040;-81
2022/08/14 05:45:16;;;;;;;9.75;8.75;;;20.00;99.90;;;;;;5076818;28;20047;-82
2022/08/14 05:47:42;;;;;;;10.68;8.98;;;20.10;99.90;;;;;;5058248;28;20051;-81
2022/08/14 05:50:10;;;;;;;11.30;9.00;;;20.10;99.90;;;;;;5041796;28;20397;-80
2022/08/14 05:52:36;;;;;;;9.35;8.35;;;20.20;99.90;;;;;;5076376;28;20045;-81
2022/08/14 05:55:03;;;;;;;11.65;9.38;;;20.20;99.90;;;;;;5076336;28;20391;-81
2022/08/14 05:57:29;;;;;;;12.40;8.93;;;20.30;99.90;;;;;;5076088;28;20048;-80
2022/08/14 05:59:56;;;;;;;10.60;9.50;;;20.40;99.90;;;;;;5076206;28;20044;-80
2022/08/14 06:02:21;;;;;;;10.90;9.80;;;20.50;99.90;;;;;;5076147;28;20152;-81
2022/08/14 06:04:47;;;;;;;11.55;10.00;;;20.50;99.90;;;;;;5075745;28;20091;-80
2022/08/14 06:07:14;;;;;;;10.52;9.45;;;20.60;99.90;;;;;;5075959;28;20135;-80
2022/08/14 06:09:40;;;;;;;13.15;9.68;;;20.60;99.90;;;;;;5058449;28;20067;-80
2022/08/14 06:12:09;;;;;;;10.68;9.57;;;20.70;99.90;;;;;;5075902;28;20131;-80
2022/08/14 06:14:36;;;;;;;12.25;9.25;;;20.70;99.90;;;;;;5058001;28;20044;-81
2022/08/14 06:17:03;;;;;;;10.75;9.15;;;20.80;99.90;;;;;;5075739;28;20088;-82
2022/08/14 06:19:28;;;;;;;11.15;9.95;;;20.90;99.90;;;;;;5058025;28;20499;-81
2022/08/14 06:21:54;;;;;;;11.95;9.68;;;21.00;99.90;;;;;;5075866;28;20082;-80
2022/08/14 06:24:20;;;;;;;9.52;8.50;;;21.10;99.90;;;;;;5074479;28;20447;-80
2022/08/14 06:26:46;;;;;;;10.70;8.93;;;21.10;99.90;;;;;;5074427;28;20066;-82
2022/08/14 06:29:12;;;;;;;12.85;9.02;;;21.30;99.90;;;;;;5074995;28;20106;-80
2022/08/14 06:31:37;;;;;;;9.88;8.90;;;21.40;99.90;;;;;;5075088;28;20040;-82
2022/08/14 06:34:03;;;;;;;10.50;8.43;;;21.50;99.90;;;;;;5075136;28;20131;-82
2022/08/14 06:36:29;;;;;;;9.82;8.93;;;21.60;99.90;;;;;;5057150;28;20473;-83
2022/08/14 06:38:55;;;;;;;9.38;8.07;;;21.70;99.90;;;;;;5075117;28;20076;-80
2022/08/14 06:41:22;;;;;;;9.95;8.88;;;21.90;99.90;;;;;;5055935;28;20076;-80
2022/08/14 06:43:48;;;;;;;10.10;9.02;;;22.00;99.90;;;;;;5057223;28;20048;-81
2022/08/14 06:46:14;;;;;;;10.23;9.20;;;22.10;99.90;;;;;;5057074;28;20401;-81
2022/08/14 06:48:39;;;;;;;10.55;8.82;;;22.10;99.90;;;;;;5074589;28;20036;-80
2022/08/14 06:51:05;;;;;;;11.65;8.60;;;22.20;99.90;;;;;;5072783;28;20048;-81
2022/08/14 06:53:31;;;;;;;12.95;9.30;;;22.30;99.90;;;;;;5051287;28;20083;-81
2022/08/14 06:55:57;;;;;;;10.60;8.70;;;22.40;99.90;;;;;;5029184;28;20045;-81
2022/08/14 06:58:23;;;;;;;11.20;8.95;;;22.40;99.90;;;;;;5071852;28;20513;-82
2022/08/14 07:06:19;;;;;;;10.40;7.85;;;22.70;99.90;;;;;;5046496;28;20049;-81
2022/08/14 07:08:45;;;;;;;9.40;7.82;;;22.90;99.90;;;;;;5050963;28;20430;-79
2022/08/14 07:11:11;;;;;;;10.52;8.60;;;23.00;99.90;;;;;;5072147;28;20037;-79
2022/08/14 07:13:38;;;;;;;9.18;8.23;;;23.10;99.90;;;;;;5041973;28;20041;-79
2022/08/14 07:16:04;;;;;;;10.05;8.38;;;23.20;99.90;;;;;;5063083;28;20120;-80
2022/08/14 07:18:32;;;;;;;17.75;8.32;;;23.20;99.90;;;;;;5061967;28;20052;-78
2022/08/14 07:21:00;;;;;;;9.27;7.90;;;23.30;99.90;;;;;;5037024;28;20130;-82
2022/08/14 07:23:27;;;;;;;8.38;7.57;;;23.50;99.90;;;;;;5072846;28;20040;-77
2022/08/14 07:25:55;;;;;;;10.70;6.47;;;23.50;99.90;;;;;;5072997;28;20079;-80
2022/08/14 07:28:25;;;;;;;8.73;7.78;;;23.60;99.90;;;;;;5037500;28;20493;-79
2022/08/14 07:30:56;;;;;;;14.65;7.20;;;23.80;99.90;;;;;;5061290;28;20481;-80
2022/08/14 07:33:24;;;;;;;7.72;6.93;;;23.90;99.90;;;;;;5049524;28;20068;-80
2022/08/14 07:35:49;;;;;;;9.32;6.78;;;24.00;99.90;;;;;;5040460;28;20052;-79
2022/08/14 07:38:21;;;;;;;8.23;6.95;;;24.10;99.90;;;;;;5056709;28;20438;-78
2022/08/14 07:40:50;;;;;;;8.13;6.93;;;24.30;99.90;;;;;;5074108;28;20409;-79
2022/08/14 07:43:16;;;;;;;9.70;6.93;;;24.40;99.90;;;;;;5055901;28;20048;-79
2022/08/14 07:45:43;;;;;;;8.73;6.97;;;24.50;99.90;;;;;;5074158;28;20084;-78
2022/08/14 07:48:09;;;;;;;6.82;6.13;;;24.70;99.90;;;;;;5074263;28;20066;-81
2022/08/14 07:50:36;;;;;;;7.10;6.32;;;24.90;99.90;;;;;;5056449;28;20098;-79
2022/08/14 07:53:02;;;;;;;8.35;6.13;;;25.00;99.90;;;;;;5054651;28;20080;-86
2022/08/14 07:55:28;;;;;;;9.27;6.50;;;25.20;99.90;;;;;;5055448;28;20076;-80
2022/08/14 07:57:55;;;;;;;8.88;6.13;;;25.40;99.90;;;;;;5072873;28;20094;-83
2022/08/14 08:00:22;;;;;;;6.72;6.00;;;25.60;99.90;;;;;;5038943;28;20064;-80
2022/08/14 08:02:51;;;;;;;6.25;5.68;;;25.80;99.90;;;;;;5038605;28;20123;-78
2022/08/14 08:05:18;;;;;;;8.15;6.50;;;26.00;99.90;;;;;;5054511;28;20044;-80
2022/08/14 08:07:45;;;;;;;7.15;6.13;;;26.40;99.90;;;;;;5055335;28;20044;-81
2022/08/14 08:10:32;;;;;;;6.38;5.80;;;26.70;98.90;;;;;;5073024;28;20417;-80
2022/08/14 08:13:09;;;;;;;8.75;5.70;;;27.00;98.50;;;;;;5073217;28;20119;-82
2022/08/14 08:15:40;;;;;;;6.97;5.25;;;27.20;94.70;;;;;;5072973;28;20524;-82
2022/08/14 08:18:08;;;;;;;6.15;5.50;;;27.30;92.60;;;;;;5054951;28;20044;-82
2022/08/14 08:20:36;;;;;;;9.13;5.47;;;27.70;90.50;;;;;;5038797;28;20037;-82
2022/08/14 08:23:04;;;;;;;8.73;5.18;;;28.40;80.70;;;;;;5036144;28;20109;-83
2022/08/14 08:25:33;;;;;;;7.85;4.50;;;29.20;71.10;;;;;;5052421;28;20045;-82
2022/08/14 08:28:00;;;;;;;7.03;4.97;;;29.70;66.80;;;;;;5052326;28;20398;-83
2022/08/14 08:30:29;;;;;;;5.88;5.25;;;30.10;64.70;;;;;;5018838;28;20052;-80
2022/08/14 08:32:56;;;;;;;6.88;4.70;;;30.30;63.20;;;;;;5052522;28;20120;-81
2022/08/14 08:35:25;;;;;;;7.47;4.72;;;30.80;61.40;;;;;;5034656;28;20524;-83
2022/08/14 08:37:52;;;;;;;8.85;5.32;;;31.30;60.00;;;;;;5052339;28;20045;-82
2022/08/14 08:40:27;;;;;;;7.47;4.97;;;31.70;57.90;;;;;;5062930;28;20123;-82
2022/08/14 08:42:53;;;;;;;6.78;4.50;;;32.10;56.40;;;;;;5072361;28;20425;-82
2022/08/14 08:45:20;;;;;;;8.05;5.10;;;32.50;55.40;;;;;;5072347;28;20052;-83
2022/08/14 08:47:46;;;;;;;5.47;4.97;;;32.70;54.10;;;;;;5054597;28;20059;-83
2022/08/14 08:50:31;;;;;;;7.35;4.85;;;33.10;53.90;;;;;;5072204;28;20446;-82
2022/08/14 08:53:00;;;;;;;7.10;4.82;;;33.70;52.80;;;;;;5071774;28;20489;-83
2022/08/14 08:55:37;;;;;;;5.30;4.80;;;34.40;51.90;;;;;;5052988;28;20337;-82
2022/08/14 08:58:08;;;;;;;6.03;4.88;;;34.70;50.50;;;;;;5073636;28;20106;-82
2022/08/14 09:00:37;;;;;;;5.05;4.43;;;35.00;50.00;;;;;;5073567;28;20068;-82
2022/08/14 09:03:09;;;;;;;11.05;5.20;;;35.40;49.30;;;;;;5056787;28;20578;-81
2022/08/14 09:05:37;;;;;;;6.50;5.15;;;35.70;48.20;;;;;;5074164;28;20051;-81
2022/08/14 09:08:18;;;;;;;5.55;5.03;;;35.60;47.30;;;;;;5091906;28;20048;-82
2022/08/14 09:10:44;;;;;;;4.85;4.28;;;35.70;48.00;;;;;;5073998;28;20404;-82
2022/08/14 09:13:11;;;;;;;6.32;4.72;;;35.90;47.40;;;;;;5092076;28;20405;-83
2022/08/14 09:15:48;;;;;;;5.15;4.72;;;36.20;47.40;;;;;;5091303;28;20054;-82
2022/08/14 09:18:16;;;;;;;5.72;4.75;;;36.60;46.60;;;;;;5090112;28;20051;-83
2022/08/14 09:20:45;;;;;;;6.10;4.45;;;36.80;46.00;;;;;;5091926;28;20102;-83
2022/08/14 09:23:12;;;;;;;5.47;4.88;;;37.10;46.00;;;;;;5091910;28;20036;-90
2022/08/14 09:25:40;;;;;;;4.72;4.25;;;37.30;45.30;;;;;;5091949;28;20106;-84
2022/08/14 09:28:07;;;;;;;6.72;4.47;;;37.40;45.20;;;;;;5073703;28;20051;-84
2022/08/14 09:30:35;;;;;;;4.50;4.10;;;37.80;44.70;;;;;;5091654;28;20052;-83
2022/08/14 09:33:00;;;;;;;5.63;4.05;;;38.00;44.10;;;;;;5092229;28;20136;-84
2022/08/14 09:36:07;;;;;;;5.18;4.47;;;38.30;43.60;;;;;;5073983;28;20555;-85
2022/08/14 09:38:52;;;;;;;4.68;4.15;;;38.60;43.00;;;;;;4958341;28;20142;-84
2022/08/14 09:41:38;;;;;;;6.60;4.13;;;38.90;42.60;;;;;;4991422;28;20054;-83
2022/08/14 09:44:15;;;;;;;4.53;4.13;;;38.90;41.90;;;;;;4990817;28;20062;-83
2022/08/14 09:46:56;;;;;;;5.18;4.25;;;38.60;41.90;;;;;;4991509;28;20053;-84
2022/08/14 09:49:32;;;;;;;4.50;4.10;;;38.50;42.00;;;;;;5005454;28;20432;-84
2022/08/14 09:52:10;;;;;;;4.95;4.00;;;38.60;41.70;;;;;;5011000;28;20038;-83
2022/08/14 09:54:43;;;;;;;5.60;4.45;;;38.70;41.60;;;;;;5011263;28;20053;-83
2022/08/14 09:57:12;;;;;;;4.80;4.40;;;38.80;41.10;;;;;;5010638;28;20054;-83
2022/08/14 09:59:48;;;;;;;6.40;4.80;;;39.10;41.00;;;;;;4994789;28;20050;-83
2022/08/14 10:02:21;;;;;;;6.10;4.45;;;39.40;40.50;;;;;;4995779;28;20153;-83
2022/08/14 10:05:08;;;;;;;4.20;3.83;;;39.50;40.30;;;;;;4991293;28;20054;-83
2022/08/14 10:07:49;;;;;;;4.38;3.92;;;39.70;40.90;;;;;;4991335;28;20050;-83
2022/08/14 10:10:34;;;;;;;5.00;4.50;;;40.00;40.10;;;;;;4991075;28;20057;-84
2022/08/14 10:13:21;;;;;;;6.43;4.35;;;40.10;40.20;;;;;;5010656;28;20081;-83
2022/08/14 10:15:49;;;;;;;7.45;4.35;;;40.20;40.10;;;;;;5065658;28;20059;-82
2022/08/14 10:18:17;;;;;;;7.70;4.65;;;40.30;40.50;;;;;;5092865;28;20052;-83
2022/08/14 10:21:00;;;;;;;6.35;4.22;;;40.40;38.80;;;;;;5092419;28;20083;-85
2022/08/14 10:23:44;;;;;;;4.43;4.10;;;40.50;39.50;;;;;;5092601;28;20494;-84
2022/08/14 10:26:15;;;;;;;4.88;4.25;;;40.70;39.90;;;;;;5074952;28;20074;-83
2022/08/14 10:28:50;;;;;;;4.18;3.83;;;40.90;38.20;;;;;;5095738;28;20048;-83
2022/08/14 10:31:28;;;;;;;4.80;4.00;;;41.00;38.50;;;;;;5071953;28;20556;-86
2022/08/14 10:33:59;;;;;;;4.43;3.88;;;41.10;37.90;;;;;;5076163;28;20052;-83
2022/08/14 10:36:40;;;;;;;4.10;3.70;;;41.30;38.10;;;;;;5058731;28;20070;-84
2022/08/14 10:39:24;;;;;;;7.70;3.70;;;41.50;37.90;;;;;;5075905;28;20040;-84
2022/08/14 10:42:04;;;;;;;3.83;3.50;;;41.60;37.30;;;;;;5058241;28;20067;-83
2022/08/14 10:44:35;;;;;;;;;;;41.60;37.10;;;;;;5076527;28;20074;-84
2022/08/14 10:47:04;;;;;;;4.85;4.07;;;41.80;36.90;;;;;;5058268;28;19939;-83
2022/08/14 10:49:30;;;;;;;4.95;3.78;;;41.60;36.50;;;;;;5058519;28;20138;-83
2022/08/14 10:52:08;;;;;;;4.47;3.70;;;41.60;37.20;;;;;;5074389;28;20090;-88
2022/08/14 10:54:43;;;;;;;5.13;4.20;;;41.60;37.20;;;;;;5058104;28;20040;-83
2022/08/14 10:57:24;;;;;;;4.95;3.83;;;41.70;36.50;;;;;;5058269;28;20045;-84
2022/08/14 11:00:12;;;;;;;4.00;3.70;;;41.80;36.30;;;;;;5058204;28;20048;-83
2022/08/14 11:02:39;;;;;;;4.70;3.90;;;41.80;36.60;;;;;;5060903;28;20052;-83
2022/08/14 11:05:16;;;;;;;4.05;3.60;;;42.00;36.40;;;;;;5077862;28;20047;-83
2022/08/14 11:07:54;;;;;;;4.40;3.72;;;42.10;36.80;;;;;;5074016;28;20040;-83
2022/08/14 11:10:24;;;;;;;4.25;3.72;;;42.30;36.60;;;;;;5066119;28;20097;-83
2022/08/14 11:12:55;;;;;;;4.30;3.90;;;42.30;36.00;;;;;;5083903;28;20456;-83
2022/08/14 11:15:24;;;;;;;4.57;3.80;;;42.40;35.30;;;;;;5057603;28;20045;-84
2022/08/14 11:17:50;;;;;;;3.70;3.40;;;42.40;36.00;;;;;;5075501;28;20051;-84
2022/08/14 11:20:24;;;;;;;5.35;3.65;;;42.60;35.40;;;;;;5075309;28;20056;-83
2022/08/14 11:22:53;;;;;;;6.43;3.60;;;42.80;35.40;;;;;;5075155;28;20093;-83
2022/08/14 11:25:22;;;;;;;3.45;3.22;;;42.80;34.70;;;;;;5058580;28;20517;-83
2022/08/14 11:27:50;;;;;;;3.80;2.92;;;42.70;34.30;;;;;;5056878;28;20490;-83
2022/08/14 11:30:21;;;;;;;3.50;3.20;;;42.70;34.50;;;;;;5057319;28;20044;-84
2022/08/14 11:32:49;;;;;;;3.35;3.05;;;42.70;35.00;;;;;;5081023;28;20043;-83
2022/08/14 11:35:18;;;;;;;3.63;3.33;;;42.80;34.40;;;;;;5075392;28;20408;-83
2022/08/14 11:38:04;;;;;;;5.53;3.67;;;42.90;34.10;;;;;;5095299;28;20044;-83
2022/08/14 11:40:36;;;;;;;4.85;3.90;;;42.70;34.70;;;;;;5059107;28;20047;-85
2022/08/14 11:43:04;;;;;;;4.15;3.85;;;42.50;35.20;;;;;;5094603;28;20058;-84
2022/08/14 11:45:35;;;;;;;4.28;3.88;;;42.50;34.70;;;;;;5087395;28;20047;-83
2022/08/14 11:48:17;;;;;;;5.22;3.92;;;42.30;35.10;;;;;;5068849;28;20097;-83
2022/08/14 11:50:44;;;;;;;5.50;3.78;;;42.10;35.50;;;;;;5076918;28;20052;-84
2022/08/14 11:53:29;;;;;;;4.20;3.80;;;41.90;35.90;;;;;;5076471;28;20040;-83
2022/08/14 11:56:12;;;;;;;6.03;4.40;;;41.80;36.20;;;;;;5094873;28;20135;-84
2022/08/14 11:58:38;;;;;;;6.07;3.90;;;41.50;36.20;;;;;;5076728;28;20077;-84
2022/08/14 12:01:07;;;;;;;4.40;3.95;;;41.30;36.10;;;;;;5094766;28;20147;-84
2022/08/14 12:03:45;;;;;;;4.65;4.05;;;41.10;36.50;;;;;;5076309;28;20470;-84
2022/08/14 12:06:13;;;;;;;5.78;3.90;;;41.00;37.30;;;;;;5094850;28;20055;-84
2022/08/14 12:08:39;;;;;;;5.90;3.90;;;40.90;37.40;;;;;;5060226;28;20511;-86
2022/08/14 12:11:07;;;;;;;4.53;4.13;;;40.80;37.60;;;;;;5094631;28;20040;-86
2022/08/14 12:13:34;;;;;;;4.35;3.92;;;40.60;37.30;;;;;;5076845;28;20109;-85
2022/08/14 12:16:08;;;;;;;6.65;4.03;;;40.20;37.40;;;;;;5076426;28;20505;-85
2022/08/14 12:18:37;;;;;;;4.53;4.05;;;39.70;37.80;;;;;;5094192;28;20044;-84
2022/08/14 12:21:21;;;;;;;4.53;3.97;;;39.20;39.10;;;;;;5076797;28;20135;-84
2022/08/14 12:24:04;;;;;;;4.70;4.25;;;38.70;38.10;;;;;;5094058;28;20503;-84
2022/08/14 12:26:30;;;;;;;7.68;4.43;;;37.90;39.20;;;;;;5076413;28;20374;-84
2022/08/14 12:29:14;;;;;;;4.63;3.90;;;36.50;41.10;;;;;;5075819;28;20052;-84
2022/08/14 12:31:43;;;;;;;4.65;4.07;;;35.60;42.70;;;;;;5094482;28;20433;-83
2022/08/14 12:34:11;;;;;;;5.45;4.10;;;35.50;43.50;;;;;;5094150;28;20051;-84
2022/08/14 12:36:37;;;;;;;4.97;4.57;;;35.50;43.10;;;;;;5076237;28;20051;-84
2022/08/14 12:39:15;;;;;;;6.40;4.50;;;35.60;43.50;;;;;;5094503;28;20044;-85
2022/08/14 12:41:51;;;;;;;5.05;4.47;;;35.50;42.80;;;;;;5075892;28;20134;-84
2022/08/14 12:44:28;;;;;;;5.38;4.22;;;35.40;43.50;;;;;;5093934;28;20044;-85
2022/08/14 12:47:06;;;;;;;4.53;4.13;;;35.00;43.80;;;;;;5093891;28;20047;-84
2022/08/14 12:49:32;;;;;;;5.47;4.28;;;34.50;44.40;;;;;;5076007;28;20396;-84
2022/08/14 12:52:01;;;;;;;4.57;3.88;;;34.10;45.90;;;;;;5075450;28;20066;-85
2022/08/14 12:54:28;;;;;;;4.22;3.92;;;34.00;45.30;;;;;;5094199;28;20131;-83
2022/08/14 12:57:14;;;;;;;4.72;4.18;;;34.10;44.80;;;;;;5093885;28;20048;-84
2022/08/14 12:59:43;;;;;;;4.97;4.15;;;34.20;45.00;;;;;;5074640;28;20070;-83
2022/08/14 13:02:22;;;;;;;4.40;4.03;;;33.90;45.30;;;;;;5075384;28;20063;-83
2022/08/14 13:04:49;;;;;;;5.63;4.28;;;33.60;45.50;;;;;;5093170;28;20040;-84
2022/08/14 13:07:14;;;;;;;5.35;4.20;;;33.20;46.20;;;;;;5093562;28;20086;-83
2022/08/14 13:09:40;;;;;;;5.57;4.30;;;33.10;47.00;;;;;;5094166;28;20087;-84
2022/08/14 13:12:06;;;;;;;5.00;4.60;;;33.20;48.30;;;;;;5093584;28;20040;-83